This is the latest recevied weather packets stored in our database for station/object AK4FD. If no packets are shown the sender has not sent any weather packets the latest 1 day(s).
| Time | Temp. | Humidity | Pressure | Rain* | Wind** | Luminosity | Snow |
|---|---|---|---|---|---|---|---|
| 1778080538 | 21.67° C | 62% | 1014.3 hPa | 0 mm | - | 124 W/m² | - |
| 1778080236 | 21.67° C | 63% | 1014.1 hPa | 0 mm | - | 113 W/m² | - |
| 1778078719 | 20.56° C | 68% | 1014.4 hPa | 0 mm | - | 105 W/m² | - |
| 1778078114 | 20° C | 69% | 1014.4 hPa | 0 mm | - | 84 W/m² | - |
| 1778077813 | 19.44° C | 69% | 1014.4 hPa | 0 mm | - | 68 W/m² | - |
| 1778077208 | 19.44° C | 70% | 1014.7 hPa | 0 mm | - | 61 W/m² | - |
| 1778075997 | 18.89° C | 73% | 1014.6 hPa | 0 mm | - | 68 W/m² | - |
| 1778074177 | 18.33° C | 75% | 1014 hPa | 0 mm | - | 62 W/m² | - |
| 1778072360 | 17.22° C | 76% | 1014.4 hPa | 0 mm | - | 55 W/m² | - |
| 1778072058 | 17.22° C | 77% | 1014.3 hPa | 0 mm | - | 51 W/m² | - |
| 1778070242 | 16.11° C | 79% | 1014 hPa | 0 mm | - | 23 W/m² | - |
| 1778069334 | 16.11° C | 79% | 1014.8 hPa | 0 mm | - | 18 W/m² | - |
| 1778068729 | 16.11° C | 79% | 1015.1 hPa | 0 mm | - | 11 W/m² | - |
| 1778068125 | 15.56° C | 79% | 1015 hPa | 0 mm | - | 21 W/m² | - |
| 1778067521 | 15.56° C | 79% | 1014.7 hPa | 0 mm | - | 19 W/m² | - |
| 1778067218 | 15.56° C | 79% | 1014.5 hPa | 0 mm | - | 18 W/m² | - |
| 1778066007 | 15.56° C | 80% | 1014.4 hPa | 0 mm | - | 10 W/m² | - |
| 1778065098 | 15.56° C | 79% | 1014.4 hPa | 0 mm | - | 6 W/m² | - |
| 1778064190 | 15.56° C | 78% | 1013.8 hPa | 0 mm | - | 2 W/m² | - |
| 1778063282 | 15.56° C | 78% | 1013.7 hPa | 0 mm | - | 1 W/m² | - |
| 1778062677 | 15.56° C | 77% | 1013.5 hPa | 0 mm | - | 0 W/m² | - |
| 1778062373 | 15.56° C | 77% | 1013.3 hPa | 0 mm | - | 0 W/m² | - |
| 1778062071 | 15.56° C | 77% | 1013.2 hPa | 0 mm | - | 0 W/m² | - |
| 1778061769 | 15.56° C | 77% | 1013.4 hPa | 0 mm | - | 0 W/m² | - |
| 1778061467 | 15.56° C | 77% | 1013.6 hPa | 0 mm | - | 0 W/m² | - |
* Rain latest hour (hover to see other rain measurements)
** Current wind speed in m/s (hover to see current wind gust speed)